Time;durP1;ratioP1;P1;durP2;ratioP2;P2;SDS_P1;SDS_P2;PMS_P1;PMS_P2;Temp;Humidity;BMP_temperature;BMP_pressure;BME280_temperature;BME280_humidity;BME280_pressure;Samples;Min_cycle;Max_cycle;Signal;HPM_P1;HPM_P2
2022/02/13 00:02:08;;;;;;;12.77;7.43;;;;;;;;;;5015185;28;20211;-87
2022/02/13 00:04:35;;;;;;;11.53;7.50;;;;;;;;;;5014981;28;20215;-88
2022/02/13 00:07:02;;;;;;;12.57;7.43;;;;;;;;;;5015422;28;20203;-88
2022/02/13 00:09:31;;;;;;;10.07;7.50;;;;;;;;;;5014830;28;20839;-88
2022/02/13 00:12:02;;;;;;;11.60;7.17;;;;;;;;;;5014822;28;20212;-88
2022/02/13 00:14:30;;;;;;;12.80;7.47;;;;;;;;;;5014963;28;20200;-88
2022/02/13 00:16:57;;;;;;;11.10;7.40;;;;;;;;;;5014528;28;20225;-88
2022/02/13 00:19:24;;;;;;;12.33;7.33;;;;;;;;;;5014460;28;20663;-88
2022/02/13 00:21:52;;;;;;;13.97;7.57;;;;;;;;;;5014944;28;20253;-87
2022/02/13 00:24:20;;;;;;;11.80;7.30;;;;;;;;;;5014908;28;20743;-88
2022/02/13 00:26:47;;;;;;;12.57;7.80;;;;;;;;;;5015206;28;20794;-87
2022/02/13 00:29:16;;;;;;;11.97;8.07;;;;;;;;;;5013423;28;20205;-88
2022/02/13 00:31:43;;;;;;;11.07;7.00;;;;;;;;;;5014683;28;20254;-88
2022/02/13 00:34:11;;;;;;;12.97;7.63;;;;;;;;;;5016258;28;20200;-88
2022/02/13 00:36:38;;;;;;;13.40;7.97;;;;;;;;;;5019354;28;20697;-88
2022/02/13 00:39:06;;;;;;;12.47;7.87;;;;;;;;;;5014443;28;20263;-87
2022/02/13 00:41:33;;;;;;;11.10;7.40;;;;;;;;;;4993965;28;20197;-87
2022/02/13 00:44:01;;;;;;;11.23;7.83;;;;;;;;;;5001383;28;20233;-88
2022/02/13 00:46:30;;;;;;;12.60;7.80;;;;;;;;;;5014585;28;20242;-88
2022/02/13 00:48:59;;;;;;;12.57;8.60;;;;;;;;;;5014516;28;20259;-88
2022/02/13 00:51:27;;;;;;;15.10;7.70;;;;;;;;;;5014134;28;20673;-88
2022/02/13 00:53:54;;;;;;;13.20;8.33;;;;;;;;;;5014332;28;20205;-88
2022/02/13 00:56:21;;;;;;;12.20;7.83;;;;;;;;;;5013720;28;20244;-87
2022/02/13 00:58:49;;;;;;;12.13;8.10;;;;;;;;;;5014194;28;20204;-87
2022/02/13 01:01:16;;;;;;;14.27;8.80;;;;;;;;;;5013888;28;20684;-88
2022/02/13 01:03:45;;;;;;;11.63;6.97;;;;;;;;;;5014029;28;20207;-88
2022/02/13 01:06:12;;;;;;;12.13;8.10;;;;;;;;;;5014095;28;20208;-88
2022/02/13 01:08:40;;;;;;;10.90;7.53;;;;;;;;;;5013569;28;20222;-87
2022/02/13 01:11:07;;;;;;;10.27;7.73;;;;;;;;;;5013996;28;20211;-88
2022/02/13 01:13:35;;;;;;;12.30;8.27;;;;;;;;;;5013748;28;20709;-87
2022/02/13 01:16:02;;;;;;;11.17;8.23;;;;;;;;;;5013857;28;20643;-88
2022/02/13 01:18:30;;;;;;;13.07;8.33;;;;;;;;;;5013838;28;20204;-88
2022/02/13 01:20:59;;;;;;;11.57;8.40;;;;;;;;;;5013734;28;20201;-88
2022/02/13 01:23:26;;;;;;;12.40;8.20;;;;;;;;;;5013191;28;20683;-88
2022/02/13 01:25:53;;;;;;;11.77;8.30;;;;;;;;;;5013444;28;20204;-88
2022/02/13 01:28:21;;;;;;;13.43;8.13;;;;;;;;;;5022493;28;20215;-87
2022/02/13 01:30:48;;;;;;;10.97;8.33;;;;;;;;;;5033219;28;20249;-88
2022/02/13 01:33:15;;;;;;;16.73;8.17;;;;;;;;;;5028385;28;20266;-88
2022/02/13 01:35:43;;;;;;;14.63;8.90;;;;;;;;;;5013094;28;20672;-87
2022/02/13 01:38:11;;;;;;;13.77;8.60;;;;;;;;;;5012998;28;20266;-88
2022/02/13 01:40:39;;;;;;;11.90;8.63;;;;;;;;;;5013758;28;20624;-88
2022/02/13 01:43:06;;;;;;;11.10;8.53;;;;;;;;;;5013306;28;20610;-88
2022/02/13 01:46:00;;;;;;;12.07;8.40;;;;;;;;;;5019055;28;20211;-88
2022/02/13 01:48:29;;;;;;;12.53;8.37;;;;;;;;;;5032114;28;20208;-87
2022/02/13 01:50:57;;;;;;;10.60;7.67;;;;;;;;;;5032869;28;20195;-88
2022/02/13 01:53:40;;;;;;;12.73;7.93;;;;;;;;;;5032068;28;20664;-88
2022/02/13 01:56:08;;;;;;;12.03;8.00;;;;;;;;;;4991288;28;20214;-88
2022/02/13 01:58:36;;;;;;;13.10;8.00;;;;;;;;;;4991552;28;20205;-88
2022/02/13 02:01:03;;;;;;;12.57;8.50;;;;;;;;;;4991238;28;20250;-88
2022/02/13 02:03:30;;;;;;;10.83;7.57;;;;;;;;;;4975043;28;20205;-88
2022/02/13 02:06:16;;;;;;;11.37;7.77;;;;;;;;;;4991348;28;20587;-87
2022/02/13 02:08:44;;;;;;;9.13;7.50;;;;;;;;;;4991120;28;20682;-88
2022/02/13 02:11:12;;;;;;;13.37;7.93;;;;;;;;;;4991586;28;20587;-88
2022/02/13 02:14:25;;;;;;;;;;;;;;;;;;;;;
2022/02/13 02:16:52;;;;;;;14.93;7.80;;;;;;;;;;4990884;28;20224;-88
2022/02/13 02:19:20;;;;;;;12.23;7.87;;;;;;;;;;4981326;28;20205;-88
2022/02/13 02:21:48;;;;;;;12.03;7.90;;;;;;;;;;4971446;28;20304;-87
2022/02/13 02:24:18;;;;;;;12.57;8.40;;;;;;;;;;4970721;28;20682;-87
2022/02/13 02:26:47;;;;;;;13.03;8.13;;;;;;;;;;4988616;28;20212;-87
2022/02/13 02:29:14;;;;;;;13.97;8.07;;;;;;;;;;5012599;28;20209;-88
2022/02/13 02:31:42;;;;;;;11.30;7.70;;;;;;;;;;5012717;28;20199;-87
2022/02/13 02:34:09;;;;;;;13.77;8.37;;;;;;;;;;5013925;28;20208;-87
2022/02/13 02:36:37;;;;;;;12.60;8.27;;;;;;;;;;5012292;28;20265;-88
2022/02/13 02:39:05;;;;;;;13.37;8.60;;;;;;;;;;5014415;28;20199;-87
2022/02/13 02:41:34;;;;;;;14.27;8.20;;;;;;;;;;5032555;28;20202;-87
2022/02/13 02:44:02;;;;;;;14.20;8.77;;;;;;;;;;5031900;28;20288;-88
2022/02/13 02:46:29;;;;;;;14.17;8.80;;;;;;;;;;5016138;28;20239;-87
2022/02/13 02:48:56;;;;;;;14.90;8.77;;;;;;;;;;5011955;28;20199;-87
2022/02/13 02:51:24;;;;;;;14.63;8.90;;;;;;;;;;5013920;28;20201;-88
2022/02/13 02:53:51;;;;;;;13.63;8.47;;;;;;;;;;5012215;28;20546;-88
2022/02/13 02:56:18;;;;;;;13.53;8.90;;;;;;;;;;5012487;28;20577;-87
2022/02/13 02:58:47;;;;;;;14.00;8.97;;;;;;;;;;5012667;28;20257;-87
2022/02/13 03:01:14;;;;;;;11.50;7.57;;;;;;;;;;5012672;28;20772;-87
2022/02/13 03:03:54;;;;;;;;;;;;;;;;;;;;;
2022/02/13 03:06:21;;;;;;;11.17;7.73;;;;;;;;;;5010544;28;20209;-87
2022/02/13 03:08:49;;;;;;;13.07;9.27;;;;;;;;;;5016130;28;20259;-87
2022/02/13 03:11:26;;;;;;;;;;;;;;;;;;;;;
2022/02/13 03:14:18;;;;;;;;;;;;;;;;;;;;;
2022/02/13 03:16:47;;;;;;;11.60;8.23;;;;;;;;;;4972757;28;20682;-87
2022/02/13 03:19:35;;;;;;;13.33;8.73;;;;;;;;;;4974733;28;20210;-87
2022/02/13 03:22:03;;;;;;;12.80;9.07;;;;;;;;;;4879493;29;20297;-87
2022/02/13 03:24:30;;;;;;;14.57;8.43;;;;;;;;;;4879799;29;20201;-87
2022/02/13 03:26:57;;;;;;;12.20;8.03;;;;;;;;;;4868132;29;20212;-87
2022/02/13 03:29:24;;;;;;;12.30;8.53;;;;;;;;;;4860826;29;20207;-88
2022/02/13 03:31:54;;;;;;;12.50;8.47;;;;;;;;;;4860973;29;20789;-86
2022/02/13 03:34:25;;;;;;;10.73;8.27;;;;;;;;;;4882825;29;20257;-87
2022/02/13 03:37:00;;;;;;;14.70;9.10;;;;;;;;;;4879463;29;20205;-87
2022/02/13 03:39:52;;;;;;;10.93;8.13;;;;;;;;;;4879368;29;20207;-87
2022/02/13 03:42:41;;;;;;;11.43;7.90;;;;;;;;;;4805239;29;20287;-86
2022/02/13 03:45:30;;;;;;;11.37;8.23;;;;;;;;;;4824228;29;20580;-87
2022/02/13 03:48:13;;;;;;;13.00;8.10;;;;;;;;;;4850210;29;20206;-87
2022/02/13 03:50:46;;;;;;;13.77;8.30;;;;;;;;;;4855401;29;20254;-86
2022/02/13 03:53:54;;;;;;;;;;;;;;;;;;;;;
2022/02/13 03:56:54;;;;;;;;;;;;;;;;;;;;;
2022/02/13 03:59:23;;;;;;;14.03;8.10;;;;;;;;;;4769507;30;20214;-87
2022/02/13 04:01:58;;;;;;;13.67;8.20;;;;;;;;;;4769570;30;20218;-87
2022/02/13 04:04:29;;;;;;;11.83;7.77;;;;;;;;;;4769669;30;20236;-86
2022/02/13 04:07:05;;;;;;;13.47;8.73;;;;;;;;;;4801162;29;20309;-87
2022/02/13 04:10:02;;;;;;;15.97;8.63;;;;;;;;;;4805591;29;20216;-86
2022/02/13 04:12:33;;;;;;;13.13;8.40;;;;;;;;;;4751704;30;20249;-87
2022/02/13 04:15:01;;;;;;;10.47;8.27;;;;;;;;;;4764326;30;20207;-87
2022/02/13 04:17:28;;;;;;;12.53;7.93;;;;;;;;;;4783327;29;20270;-87
2022/02/13 04:20:02;;;;;;;12.63;8.17;;;;;;;;;;4833989;29;20214;-87
2022/02/13 04:22:30;;;;;;;13.80;7.70;;;;;;;;;;4841916;29;20211;-87
2022/02/13 04:24:57;;;;;;;11.77;7.77;;;;;;;;;;4841517;29;20648;-87
2022/02/13 04:27:36;;;;;;;13.63;8.23;;;;;;;;;;4841633;29;20212;-87
2022/02/13 04:30:03;;;;;;;13.57;8.10;;;;;;;;;;4902859;29;20212;-87
2022/02/13 04:32:31;;;;;;;11.70;7.60;;;;;;;;;;4915504;29;20213;-87
2022/02/13 04:34:58;;;;;;;10.93;7.63;;;;;;;;;;4919980;28;20288;-86
2022/02/13 04:37:25;;;;;;;10.70;7.57;;;;;;;;;;4994129;28;20234;-86
2022/02/13 04:39:54;;;;;;;13.20;7.37;;;;;;;;;;4993913;28;20202;-86
2022/02/13 04:42:21;;;;;;;11.77;7.73;;;;;;;;;;4994259;28;20222;-87
2022/02/13 04:44:52;;;;;;;10.80;6.10;;;;;;;;;;4994302;28;20217;-87
2022/02/13 04:47:19;;;;;;;12.30;7.47;;;;;;;;;;4994334;28;20201;-86
2022/02/13 04:49:47;;;;;;;10.93;6.93;;;;;;;;;;4994424;28;20210;-87
2022/02/13 04:52:15;;;;;;;11.47;7.23;;;;;;;;;;4994291;28;20709;-87
2022/02/13 04:54:43;;;;;;;12.53;7.23;;;;;;;;;;4994173;28;20206;-86
2022/02/13 04:57:11;;;;;;;11.10;6.83;;;;;;;;;;4994605;28;20209;-87
2022/02/13 04:59:39;;;;;;;9.57;6.50;;;;;;;;;;4993980;28;20201;-87
2022/02/13 05:02:06;;;;;;;9.90;5.23;;;;;;;;;;4994402;28;20207;-87
2022/02/13 05:04:33;;;;;;;12.10;6.67;;;;;;;;;;4993945;28;20237;-86
2022/02/13 05:07:01;;;;;;;10.50;6.83;;;;;;;;;;4994402;28;20213;-86
2022/02/13 05:09:28;;;;;;;9.73;6.53;;;;;;;;;;4994542;28;20198;-87
2022/02/13 05:11:56;;;;;;;11.33;7.30;;;;;;;;;;4994135;28;20216;-87
2022/02/13 05:14:25;;;;;;;10.83;6.57;;;;;;;;;;4994283;28;20212;-87
2022/02/13 05:16:52;;;;;;;11.63;7.47;;;;;;;;;;4993556;28;20202;-87
2022/02/13 05:19:20;;;;;;;8.83;6.03;;;;;;;;;;4994177;28;20221;-87
2022/02/13 05:21:48;;;;;;;11.30;6.63;;;;;;;;;;4993589;28;20809;-87
2022/02/13 05:24:15;;;;;;;10.00;6.83;;;;;;;;;;4993943;28;20265;-87
2022/02/13 05:26:42;;;;;;;11.00;7.23;;;;;;;;;;5003679;28;20217;-87
2022/02/13 05:29:10;;;;;;;14.10;6.23;;;;;;;;;;5013467;28;20566;-86
2022/02/13 05:31:38;;;;;;;11.40;6.63;;;;;;;;;;5023950;28;20201;-86
2022/02/13 05:34:06;;;;;;;9.90;6.97;;;;;;;;;;5014752;28;20218;-86
2022/02/13 05:36:33;;;;;;;10.07;7.27;;;;;;;;;;5013577;28;20201;-86
2022/02/13 05:39:00;;;;;;;11.27;7.47;;;;;;;;;;5013077;28;20645;-87
2022/02/13 05:41:27;;;;;;;13.43;7.63;;;;;;;;;;5013509;28;20201;-87
2022/02/13 05:43:55;;;;;;;10.87;6.80;;;;;;;;;;5011262;28;20240;-87
2022/02/13 05:46:25;;;;;;;9.73;6.73;;;;;;;;;;4993528;28;20256;-87
2022/02/13 05:48:54;;;;;;;11.93;7.40;;;;;;;;;;4993252;28;20240;-87
2022/02/13 05:51:23;;;;;;;13.77;7.77;;;;;;;;;;4993614;28;20257;-87
2022/02/13 05:53:50;;;;;;;9.37;6.33;;;;;;;;;;4993604;28;20234;-86
2022/02/13 05:56:18;;;;;;;9.37;6.00;;;;;;;;;;4993247;28;20197;-86
2022/02/13 05:58:45;;;;;;;10.83;6.33;;;;;;;;;;4992646;28;20234;-87
2022/02/13 06:01:13;;;;;;;8.60;6.93;;;;;;;;;;4993465;28;20233;-87
2022/02/13 06:03:40;;;;;;;10.90;7.33;;;;;;;;;;4997442;28;20245;-86
2022/02/13 06:06:09;;;;;;;10.33;7.00;;;;;;;;;;5012793;28;20599;-87
2022/02/13 06:08:36;;;;;;;10.30;6.97;;;;;;;;;;5012788;28;20236;-86
2022/02/13 06:11:03;;;;;;;11.37;5.83;;;;;;;;;;5013159;28;20231;-87
2022/02/13 06:13:31;;;;;;;11.87;6.53;;;;;;;;;;5012564;28;20271;-86
2022/02/13 06:16:01;;;;;;;7.90;5.97;;;;;;;;;;5012932;28;20220;-86
2022/02/13 06:18:28;;;;;;;9.73;6.87;;;;;;;;;;5012765;28;20221;-87
2022/02/13 06:20:55;;;;;;;11.20;6.43;;;;;;;;;;5012642;28;20233;-85
2022/02/13 06:23:24;;;;;;;9.80;6.47;;;;;;;;;;5012595;28;20201;-86
2022/02/13 06:25:51;;;;;;;9.70;5.53;;;;;;;;;;5009166;28;20206;-85
2022/02/13 06:28:18;;;;;;;9.87;6.80;;;;;;;;;;4992693;28;20264;-86
2022/02/13 06:30:46;;;;;;;7.80;5.70;;;;;;;;;;4992430;28;20702;-86
2022/02/13 06:33:14;;;;;;;8.57;6.13;;;;;;;;;;4993015;28;20189;-85
2022/02/13 06:35:41;;;;;;;9.40;6.07;;;;;;;;;;4992762;28;20233;-86
2022/02/13 06:38:11;;;;;;;8.67;5.23;;;;;;;;;;4992464;28;20723;-85
2022/02/13 06:40:40;;;;;;;11.17;6.40;;;;;;;;;;4996277;28;20608;-86
2022/02/13 06:43:07;;;;;;;7.77;5.90;;;;;;;;;;4996090;28;20291;-86
2022/02/13 06:45:36;;;;;;;8.30;6.13;;;;;;;;;;4996768;28;20210;-86
2022/02/13 06:48:04;;;;;;;9.50;6.07;;;;;;;;;;4996450;28;20202;-86
2022/02/13 06:50:31;;;;;;;8.50;6.07;;;;;;;;;;4996380;28;20205;-86
2022/02/13 06:52:59;;;;;;;9.00;5.93;;;;;;;;;;4996255;28;20199;-86
2022/02/13 06:55:27;;;;;;;11.30;5.90;;;;;;;;;;4995808;28;20206;-86
2022/02/13 06:57:55;;;;;;;7.83;5.37;;;;;;;;;;4996363;28;20198;-85
2022/02/13 07:00:23;;;;;;;7.73;5.47;;;;;;;;;;4996393;28;20261;-86
2022/02/13 07:02:50;;;;;;;9.90;6.20;;;;;;;;;;4996613;28;20210;-86
2022/02/13 07:05:19;;;;;;;9.53;6.27;;;;;;;;;;4996483;28;20628;-86
2022/02/13 07:07:47;;;;;;;9.60;5.27;;;;;;;;;;4996416;28;20209;-86
2022/02/13 07:10:14;;;;;;;8.23;6.17;;;;;;;;;;4996417;28;20301;-86
2022/02/13 07:12:42;;;;;;;10.23;6.20;;;;;;;;;;4996030;28;20662;-86
2022/02/13 07:15:11;;;;;;;8.10;5.57;;;;;;;;;;4997277;28;20233;-86
2022/02/13 07:17:38;;;;;;;9.20;6.20;;;;;;;;;;4996667;28;20213;-86
2022/02/13 07:20:07;;;;;;;9.63;6.30;;;;;;;;;;4995780;28;20218;-86
2022/02/13 07:22:34;;;;;;;9.73;6.20;;;;;;;;;;4996204;28;20222;-87
2022/02/13 07:25:01;;;;;;;9.90;5.27;;;;;;;;;;4996406;28;20261;-86
2022/02/13 07:27:30;;;;;;;6.87;5.73;;;;;;;;;;5011734;28;20578;-86
2022/02/13 07:29:58;;;;;;;8.73;6.23;;;;;;;;;;5015703;28;20217;-86
2022/02/13 07:32:27;;;;;;;8.40;6.23;;;;;;;;;;5015226;28;20205;-86
2022/02/13 07:34:54;;;;;;;8.83;6.37;;;;;;;;;;5015539;28;20627;-86
2022/02/13 07:37:22;;;;;;;7.87;5.13;;;;;;;;;;5015751;28;20205;-86
2022/02/13 07:39:50;;;;;;;8.27;6.03;;;;;;;;;;5015394;28;20221;-86
2022/02/13 07:42:18;;;;;;;8.77;5.77;;;;;;;;;;5014701;28;20304;-86
2022/02/13 07:44:48;;;;;;;9.53;6.10;;;;;;;;;;5015723;28;20209;-86
2022/02/13 07:47:15;;;;;;;9.73;5.97;;;;;;;;;;5015161;28;20211;-85
2022/02/13 07:49:44;;;;;;;9.03;5.90;;;;;;;;;;5015160;28;20564;-86
2022/02/13 07:52:11;;;;;;;8.77;5.60;;;;;;;;;;5015242;28;20703;-86
2022/02/13 07:54:39;;;;;;;6.80;5.00;;;;;;;;;;5014400;28;20197;-85
2022/02/13 07:57:06;;;;;;;8.50;6.00;;;;;;;;;;5014995;28;20255;-86
2022/02/13 07:59:35;;;;;;;9.13;6.40;;;;;;;;;;5015026;28;20221;-86
2022/02/13 08:02:02;;;;;;;9.63;6.80;;;;;;;;;;5014997;28;20292;-86
2022/02/13 08:04:30;;;;;;;8.63;6.53;;;;;;;;;;5014769;28;20198;-86
2022/02/13 08:07:02;;;;;;;8.83;5.83;;;;;;;;;;5014993;28;20203;-86
2022/02/13 08:09:40;;;;;;;8.50;6.27;;;;;;;;;;5014531;28;20199;-86
2022/02/13 08:12:09;;;;;;;9.47;5.60;;;;;;;;;;5015188;28;20201;-86
2022/02/13 08:14:36;;;;;;;10.17;6.30;;;;;;;;;;5015266;28;20207;-86
2022/02/13 08:17:38;;;;;;;8.40;6.20;;;;;;;;;;5014954;28;20216;-87
2022/02/13 08:20:15;;;;;;;11.03;6.13;;;;;;;;;;5014707;28;20232;-86
2022/02/13 08:22:44;;;;;;;7.57;5.47;;;;;;;;;;5014649;28;20204;-86
2022/02/13 08:25:17;;;;;;;7.27;5.03;;;;;;;;;;5014630;28;20209;-86
2022/02/13 08:27:44;;;;;;;8.17;6.13;;;;;;;;;;4996230;28;20249;-86
2022/02/13 08:30:12;;;;;;;10.17;6.03;;;;;;;;;;4995136;28;20288;-87
2022/02/13 08:32:40;;;;;;;7.93;6.03;;;;;;;;;;4995105;28;20240;-86
2022/02/13 08:35:08;;;;;;;7.37;5.73;;;;;;;;;;4994839;28;20209;-87
2022/02/13 08:37:35;;;;;;;7.83;5.90;;;;;;;;;;4994919;28;20218;-86
2022/02/13 08:40:04;;;;;;;8.20;5.80;;;;;;;;;;4994660;28;20240;-86
2022/02/13 08:42:31;;;;;;;9.30;5.90;;;;;;;;;;4994527;28;20644;-86
2022/02/13 08:44:59;;;;;;;7.33;5.87;;;;;;;;;;4994690;28;20251;-87
2022/02/13 08:47:26;;;;;;;8.00;6.30;;;;;;;;;;4994790;28;20627;-86
2022/02/13 08:50:08;;;;;;;8.30;6.13;;;;;;;;;;4994508;28;20212;-87
2022/02/13 08:52:35;;;;;;;9.30;6.50;;;;;;;;;;4994159;28;20234;-87
2022/02/13 08:55:04;;;;;;;8.03;5.57;;;;;;;;;;4994913;28;20271;-86
2022/02/13 08:57:31;;;;;;;6.50;5.07;;;;;;;;;;4994721;28;20726;-86
2022/02/13 08:59:58;;;;;;;9.07;6.27;;;;;;;;;;4994397;28;20820;-87
2022/02/13 09:02:26;;;;;;;8.73;6.23;;;;;;;;;;4994047;28;20211;-87
2022/02/13 09:04:53;;;;;;;7.83;6.70;;;;;;;;;;4994183;28;20207;-87
2022/02/13 09:07:25;;;;;;;10.07;6.80;;;;;;;;;;4994670;28;20204;-86
2022/02/13 09:10:10;;;;;;;8.53;6.67;;;;;;;;;;4994989;28;20212;-87
2022/02/13 09:12:42;;;;;;;8.53;6.30;;;;;;;;;;4994699;28;20205;-86
2022/02/13 09:15:21;;;;;;;8.93;6.43;;;;;;;;;;4994531;28;20215;-87
2022/02/13 09:18:06;;;;;;;7.63;6.20;;;;;;;;;;4994139;28;20206;-87
2022/02/13 09:20:34;;;;;;;8.93;6.50;;;;;;;;;;4994507;28;20268;-86
2022/02/13 09:23:01;;;;;;;10.00;6.50;;;;;;;;;;5003894;28;20677;-86
2022/02/13 09:25:28;;;;;;;9.60;6.93;;;;;;;;;;5013844;28;20681;-87
2022/02/13 09:27:57;;;;;;;10.07;6.17;;;;;;;;;;4995980;28;20197;-85
2022/02/13 09:33:16;;;;;;;8.97;6.10;;;;;;;;;;4992252;28;20284;-86
2022/02/13 09:35:43;;;;;;;8.10;6.50;;;;;;;;;;4996599;28;20571;-87
2022/02/13 09:38:15;;;;;;;8.70;6.37;;;;;;;;;;5008942;28;20206;-86
2022/02/13 09:40:42;;;;;;;7.50;5.90;;;;;;;;;;5015459;28;20681;-87
2022/02/13 09:43:11;;;;;;;9.43;6.17;;;;;;;;;;5014007;28;21506;-88
2022/02/13 09:45:42;;;;;;;9.63;6.80;;;;;;;;;;5015052;28;20194;-87
2022/02/13 09:48:12;;;;;;;10.87;6.97;;;;;;;;;;5006982;28;20280;-87
2022/02/13 09:50:39;;;;;;;9.17;6.40;;;;;;;;;;5015679;28;20207;-87
2022/02/13 09:53:07;;;;;;;10.93;7.20;;;;;;;;;;5017990;28;20210;-88
2022/02/13 09:55:35;;;;;;;9.47;7.23;;;;;;;;;;5015769;28;20257;-87
2022/02/13 09:58:03;;;;;;;10.03;7.03;;;;;;;;;;5009244;28;20212;-87
2022/02/13 10:00:51;;;;;;;10.80;7.50;;;;;;;;;;4996651;28;20257;-88
2022/02/13 10:03:19;;;;;;;10.90;7.20;;;;;;;;;;4996593;28;21234;-86
2022/02/13 10:05:46;;;;;;;9.43;6.73;;;;;;;;;;5003166;28;20235;-87
2022/02/13 10:08:26;;;;;;;10.90;7.50;;;;;;;;;;5014259;28;20201;-86
2022/02/13 10:11:06;;;;;;;10.80;7.67;;;;;;;;;;5015273;28;20204;-86
2022/02/13 10:13:42;;;;;;;10.57;8.03;;;;;;;;;;5015142;28;20261;-87
2022/02/13 10:16:14;;;;;;;11.37;7.30;;;;;;;;;;5015283;28;20198;-86
2022/02/13 10:18:48;;;;;;;12.03;8.53;;;;;;;;;;5015041;28;20204;-86
2022/02/13 10:24:44;;;;;;;10.97;8.20;;;;;;;;;;4979689;28;20208;-87
2022/02/13 10:27:12;;;;;;;12.87;8.63;;;;;;;;;;5014922;28;20221;-86
2022/02/13 10:29:48;;;;;;;14.97;10.53;;;;;;;;;;5014905;28;20295;-86
2022/02/13 10:32:19;;;;;;;14.23;9.97;;;;;;;;;;5015292;28;20212;-86
2022/02/13 10:35:03;;;;;;;10.87;9.07;;;;;;;;;;5014702;28;20215;-87
2022/02/13 10:37:59;;;;;;;;;;;;;;;;;;;;;
2022/02/13 10:40:31;;;;;;;14.90;8.13;;;;;;;;;;5006859;28;20224;-85
2022/02/13 10:43:35;;;;;;;;;;;;;;;;;;;;;
2022/02/13 10:46:16;;;;;;;12.70;8.50;;;;;;;;;;4933625;29;20571;-88
2022/02/13 10:48:45;;;;;;;11.43;9.53;;;;;;;;;;4933668;29;20278;-88
2022/02/13 10:51:13;;;;;;;14.83;9.73;;;;;;;;;;4933653;29;20287;-88
2022/02/13 10:53:41;;;;;;;16.13;8.73;;;;;;;;;;4935113;29;20206;-88
2022/02/13 10:56:09;;;;;;;13.83;9.73;;;;;;;;;;4932569;29;20286;-88
2022/02/13 10:58:37;;;;;;;15.50;10.27;;;;;;;;;;4933276;29;20241;-88
2022/02/13 11:01:06;;;;;;;16.53;10.90;;;;;;;;;;4932592;29;20237;-89
2022/02/13 11:03:34;;;;;;;15.67;10.93;;;;;;;;;;4933221;29;20214;-89
2022/02/13 11:06:04;;;;;;;14.20;10.57;;;;;;;;;;4933644;29;20215;-89
2022/02/13 11:08:33;;;;;;;12.80;9.57;;;;;;;;;;4939556;28;20672;-88
2022/02/13 11:11:01;;;;;;;12.83;9.70;;;;;;;;;;5013180;28;20727;-86
2022/02/13 11:13:29;;;;;;;15.40;10.43;;;;;;;;;;5012693;28;20296;-88
2022/02/13 11:15:56;;;;;;;15.77;10.17;;;;;;;;;;5012786;28;20692;-89
2022/02/13 11:19:01;;;;;;;14.60;10.03;;;;;;;;;;5012432;28;20684;-89
2022/02/13 11:21:45;;;;;;;15.33;9.80;;;;;;;;;;4945334;29;20600;-89
2022/02/13 11:46:15;;;;;;;13.87;10.43;;;;;;;;;;5130238;27;20593;-86
2022/02/13 11:48:43;;;;;;;14.67;10.00;;;;;;;;;;5128434;27;20209;-85
2022/02/13 11:51:11;;;;;;;13.17;9.20;;;;;;;;;;5130412;27;20201;-87
2022/02/13 11:53:39;;;;;;;12.87;8.97;;;;;;;;;;5130377;28;20662;-87
2022/02/13 11:56:25;;;;;;;13.27;9.80;;;;;;;;;;5129857;28;20212;-86
2022/02/13 11:58:55;;;;;;;14.17;10.30;;;;;;;;;;5130142;28;20257;-84
2022/02/13 12:01:42;;;;;;;16.20;10.43;;;;;;;;;;5129598;27;20291;-86
2022/02/13 12:04:10;;;;;;;15.37;9.93;;;;;;;;;;5129275;27;20196;-87
2022/02/13 12:06:38;;;;;;;15.77;9.67;;;;;;;;;;5129931;27;20194;-84
2022/02/13 12:12:24;;;;;;;15.87;10.33;;;;;;;;;;5070430;28;20217;-85
2022/02/13 12:18:10;;;;;;;16.50;9.43;;;;;;;;;;5129224;27;20285;-84
2022/02/13 12:24:08;;;;;;;12.93;9.10;;;;;;;;;;5135308;28;20184;-86
2022/02/13 12:29:42;;;;;;;10.90;8.67;;;;;;;;;;5109575;28;20279;-88
2022/02/13 12:35:37;;;;;;;14.13;9.93;;;;;;;;;;5030095;28;20229;-88
2022/02/13 12:38:05;;;;;;;18.63;10.20;;;;;;;;;;5046312;28;20214;-88
2022/02/13 12:40:38;;;;;;;13.50;9.33;;;;;;;;;;5047639;28;20263;-88
2022/02/13 12:43:22;;;;;;;15.17;9.83;;;;;;;;;;5049066;22;20220;-88
2022/02/13 12:45:52;;;;;;;16.30;9.57;;;;;;;;;;5003084;28;20628;-87
2022/02/13 12:48:21;;;;;;;17.87;10.47;;;;;;;;;;4997158;28;20222;-88
2022/02/13 12:50:48;;;;;;;14.70;9.60;;;;;;;;;;4996452;28;20212;-88
2022/02/13 12:53:17;;;;;;;16.07;10.27;;;;;;;;;;4995397;28;20252;-88
2022/02/13 12:55:45;;;;;;;17.17;9.43;;;;;;;;;;4995382;28;20233;-87
2022/02/13 12:58:13;;;;;;;17.70;10.17;;;;;;;;;;4998553;28;20570;-87
2022/02/13 13:00:45;;;;;;;13.03;9.37;;;;;;;;;;4995716;28;20267;-87
2022/02/13 13:03:14;;;;;;;15.90;10.30;;;;;;;;;;4995555;28;20206;-84
2022/02/13 13:05:43;;;;;;;13.60;10.47;;;;;;;;;;4995970;28;20205;-85
2022/02/13 13:08:14;;;;;;;16.50;8.67;;;;;;;;;;4995683;28;20630;-85
2022/02/13 13:14:11;;;;;;;15.47;9.67;;;;;;;;;;4941257;29;20192;-85
2022/02/13 13:19:56;;;;;;;13.40;9.93;;;;;;;;;;4937228;29;20218;-87
2022/02/13 13:34:20;;;;;;;16.27;10.70;;;;;;;;;;4841667;29;20271;-87
2022/02/13 13:36:49;;;;;;;17.07;9.73;;;;;;;;;;4867525;29;20209;-86
2022/02/13 13:39:27;;;;;;;17.97;10.47;;;;;;;;;;4877842;29;20692;-87
2022/02/13 13:41:54;;;;;;;15.93;10.43;;;;;;;;;;4878530;29;20213;-87
2022/02/13 13:47:04;;;;;;;17.90;11.27;;;;;;;;;;4864258;29;20312;-87
2022/02/13 13:49:32;;;;;;;15.43;10.50;;;;;;;;;;4878948;29;20269;-85
2022/02/13 13:52:07;;;;;;;17.70;10.50;;;;;;;;;;4940507;29;20320;-86
2022/02/13 13:54:34;;;;;;;15.90;10.03;;;;;;;;;;4934405;29;20716;-86
2022/02/13 13:57:02;;;;;;;17.80;12.00;;;;;;;;;;4933480;29;20643;-86
2022/02/13 13:59:29;;;;;;;16.77;11.50;;;;;;;;;;4934162;29;20282;-87
2022/02/13 14:01:56;;;;;;;17.20;11.30;;;;;;;;;;4934219;29;20203;-86
2022/02/13 14:04:23;;;;;;;18.77;11.47;;;;;;;;;;4934285;29;20200;-86
2022/02/13 14:06:51;;;;;;;19.10;11.03;;;;;;;;;;4934615;29;20207;-86
2022/02/13 14:09:28;;;;;;;21.73;11.70;;;;;;;;;;4991111;28;20217;-86
2022/02/13 14:12:02;;;;;;;18.30;11.70;;;;;;;;;;4994934;28;20293;-86
2022/02/13 14:15:19;;;;;;;;;;;;;;;;;;;;;
2022/02/13 14:18:14;;;;;;;16.70;11.03;;;;;;;;;;4997245;28;20292;-87
2022/02/13 14:21:04;;;;;;;18.73;10.80;;;;;;;;;;4992987;28;20216;-86
2022/02/13 14:26:57;;;;;;;19.40;11.60;;;;;;;;;;5007854;28;20211;-86
2022/02/13 14:29:49;;;;;;;18.33;10.87;;;;;;;;;;5017258;28;20208;-86
2022/02/13 14:35:20;;;;;;;18.20;10.83;;;;;;;;;;5014572;28;20227;-86
2022/02/13 14:40:56;;;;;;;14.97;10.37;;;;;;;;;;4993938;28;20205;-85
2022/02/13 14:43:29;;;;;;;15.80;10.33;;;;;;;;;;5016264;28;20244;-86
2022/02/13 14:45:58;;;;;;;20.40;10.80;;;;;;;;;;5014132;28;20204;-86
2022/02/13 14:48:28;;;;;;;20.83;10.43;;;;;;;;;;5014295;28;20197;-86
2022/02/13 14:50:56;;;;;;;21.30;10.90;;;;;;;;;;5014581;28;20236;-86
2022/02/13 14:53:23;;;;;;;17.10;10.20;;;;;;;;;;5010322;28;20231;-89
2022/02/13 14:55:51;;;;;;;14.33;9.83;;;;;;;;;;4996830;28;20290;-84
2022/02/13 14:58:19;;;;;;;20.57;10.30;;;;;;;;;;5003027;28;20213;-81
2022/02/13 15:00:49;;;;;;;16.97;10.43;;;;;;;;;;4999959;28;20209;-86
2022/02/13 15:03:17;;;;;;;17.07;10.37;;;;;;;;;;5007561;28;20763;-86
2022/02/13 15:05:44;;;;;;;21.40;10.57;;;;;;;;;;5009375;28;20205;-85
2022/02/13 15:08:12;;;;;;;19.60;10.93;;;;;;;;;;5011105;28;20209;-87
2022/02/13 15:10:39;;;;;;;16.33;10.20;;;;;;;;;;5009523;28;20201;-85
2022/02/13 15:13:07;;;;;;;16.27;10.30;;;;;;;;;;5003265;28;20197;-85
2022/02/13 15:15:35;;;;;;;17.27;10.40;;;;;;;;;;4996290;28;20228;-87
2022/02/13 15:18:03;;;;;;;18.33;10.73;;;;;;;;;;5010048;28;20204;-85
2022/02/13 15:20:32;;;;;;;16.57;9.83;;;;;;;;;;5012405;28;20225;-86
2022/02/13 15:22:59;;;;;;;20.13;10.20;;;;;;;;;;5012131;28;20615;-84
2022/02/13 15:25:26;;;;;;;15.90;9.03;;;;;;;;;;5009393;28;20672;-85
2022/02/13 15:27:54;;;;;;;14.53;9.73;;;;;;;;;;4998526;28;20228;-86
2022/02/13 15:30:22;;;;;;;16.50;9.37;;;;;;;;;;5011882;28;20197;-84
2022/02/13 15:32:50;;;;;;;15.33;9.50;;;;;;;;;;5010470;28;20591;-85
2022/02/13 15:35:17;;;;;;;18.40;9.93;;;;;;;;;;4996871;28;20252;-85
2022/02/13 15:37:46;;;;;;;17.60;9.63;;;;;;;;;;5010536;28;20670;-84
2022/02/13 15:40:14;;;;;;;17.33;9.53;;;;;;;;;;5000941;28;20291;-85
2022/02/13 15:42:44;;;;;;;17.50;9.97;;;;;;;;;;5002859;28;20334;-85
2022/02/13 15:45:11;;;;;;;20.63;9.80;;;;;;;;;;4998798;28;20288;-85
2022/02/13 15:47:38;;;;;;;18.03;9.83;;;;;;;;;;5000297;28;20236;-84
2022/02/13 15:50:07;;;;;;;17.00;10.17;;;;;;;;;;5003347;28;20256;-84
2022/02/13 15:52:36;;;;;;;14.43;9.17;;;;;;;;;;5001104;28;20263;-84
2022/02/13 15:55:05;;;;;;;14.00;9.37;;;;;;;;;;5010688;28;20307;-85
2022/02/13 15:57:32;;;;;;;18.70;9.87;;;;;;;;;;4996694;28;20205;-84
2022/02/13 15:59:59;;;;;;;15.67;9.50;;;;;;;;;;5007913;28;20213;-85
2022/02/13 16:02:27;;;;;;;16.20;10.07;;;;;;;;;;5007005;28;20738;-85
2022/02/13 16:04:54;;;;;;;18.10;10.20;;;;;;;;;;5011458;28;20316;-85
2022/02/13 16:07:22;;;;;;;16.50;10.70;;;;;;;;;;5009359;28;20201;-85
2022/02/13 16:09:49;;;;;;;16.07;10.17;;;;;;;;;;5004073;28;20222;-83
2022/02/13 16:12:18;;;;;;;21.87;11.20;;;;;;;;;;5004097;28;20215;-85
2022/02/13 16:14:45;;;;;;;15.23;10.83;;;;;;;;;;5008857;28;20262;-84